Terminal Aerodrome Forecast
Issued by NWS Pendleton, OR

Home | Current Version | Previous Version | Text Only | Print | Product List | Glossary On
Versions: 1 2 3 4 5 6 7 8 9 10 11 12 13 14 15 16 17 18
473
FTUS46 KPDT 081120
TAFPDT
TAF
KPDT 081120Z 0812/0912 11006KT 1/4SM FZFG VV001
      TEMPO 0812/0816 P6SM NSW SCT001 BKN150
     FM082100 13008KT 3SM -SN BR BKN035 OVC050
     FM090800 26007KT P6SM SCT025 OVC040=

USA.gov is the U.S. government's official web portal to all federal, state and local government web resources and services.